Time;durP1;ratioP1;P1;durP2;ratioP2;P2;SDS_P1;SDS_P2;PMS_P1;PMS_P2;Temp;Humidity;BMP_temperature;BMP_pressure;BME280_temperature;BME280_humidity;BME280_pressure;Samples;Min_cycle;Max_cycle;Signal;HPM_P1;HPM_P2
2023/06/28 00:00:03;;;;;;;5.30;2.40;;;18.50;99.90;;;;;;5095595;28;20647;-48
2023/06/28 00:02:35;;;;;;;5.07;2.25;;;18.60;99.90;;;;;;5095213;28;20173;-48
2023/06/28 00:05:02;;;;;;;5.45;2.20;;;18.10;99.90;;;;;;5077455;28;20572;-48
2023/06/28 00:07:28;;;;;;;8.10;3.35;;;;;;;;;;5076985;28;20651;-48
2023/06/28 00:09:54;;;;;;;9.50;2.95;;;18.40;99.90;;;;;;5094925;28;20216;-48
2023/06/28 00:12:21;;;;;;;7.07;2.17;;;18.20;99.90;;;;;;5094998;28;20201;-48
2023/06/28 00:14:46;;;;;;;5.18;2.50;;;17.90;99.90;;;;;;5095000;28;20210;-48
2023/06/28 00:17:12;;;;;;;7.18;2.60;;;18.00;99.90;;;;;;5094992;28;20178;-48
2023/06/28 00:19:47;;;;;;;4.40;2.80;;;18.00;99.90;;;;;;5094924;28;20169;-48
2023/06/28 00:22:14;;;;;;;8.65;2.30;;;18.00;99.90;;;;;;5094918;28;20169;-48
2023/06/28 00:24:39;;;;;;;8.88;2.60;;;18.20;99.90;;;;;;5094777;28;20176;-48
2023/06/28 00:27:05;;;;;;;5.45;2.42;;;18.30;99.90;;;;;;5094765;28;20547;-48
2023/06/28 00:29:30;;;;;;;6.40;2.50;;;18.10;99.90;;;;;;5095301;28;20191;-48
2023/06/28 00:31:56;;;;;;;5.68;2.30;;;;;;;;;;5094603;28;20219;-48
2023/06/28 00:34:22;;;;;;;5.60;2.45;;;18.30;99.90;;;;;;5094679;28;20193;-48
2023/06/28 00:36:47;;;;;;;5.35;2.30;;;18.10;99.90;;;;;;5094625;28;20165;-48
2023/06/28 00:39:13;;;;;;;3.72;2.50;;;18.30;99.90;;;;;;5094512;28;20713;-48
2023/06/28 00:41:39;;;;;;;4.20;2.20;;;17.70;99.90;;;;;;5094476;28;20271;-48
2023/06/28 00:44:06;;;;;;;4.22;2.50;;;17.70;99.90;;;;;;5094538;28;20168;-48
2023/06/28 00:46:32;;;;;;;5.93;2.20;;;18.10;99.90;;;;;;5095001;28;20517;-48
2023/06/28 00:48:57;;;;;;;6.97;3.17;;;18.10;99.90;;;;;;5094448;28;20227;-48
2023/06/28 00:51:23;;;;;;;3.78;2.33;;;;;;;;;;5094265;28;20243;-48
2023/06/28 00:53:49;;;;;;;5.28;2.35;;;17.60;99.90;;;;;;5094019;28;20194;-48
2023/06/28 00:56:15;;;;;;;5.18;2.65;;;18.00;99.90;;;;;;5093683;28;20161;-48
2023/06/28 00:58:41;;;;;;;7.95;2.50;;;;;;;;;;5094211;28;20215;-48
2023/06/28 01:01:06;;;;;;;7.60;2.45;;;18.60;99.90;;;;;;5094154;28;20169;-48
2023/06/28 01:03:32;;;;;;;5.05;2.53;;;;;;;;;;5094595;28;20172;-48
2023/06/28 01:05:59;;;;;;;8.05;2.72;;;17.30;99.90;;;;;;5094096;28;20174;-49
2023/06/28 01:08:26;;;;;;;8.05;2.40;;;17.70;99.90;;;;;;5094001;28;20184;-49
2023/06/28 01:10:52;;;;;;;4.70;2.65;;;17.80;99.90;;;;;;5093695;28;20213;-48
2023/06/28 01:13:18;;;;;;;9.77;2.88;;;17.30;99.90;;;;;;5093947;28;20591;-48
2023/06/28 01:15:44;;;;;;;5.03;2.60;;;18.10;99.90;;;;;;5093853;28;20617;-49
2023/06/28 01:18:10;;;;;;;5.88;3.10;;;17.90;99.90;;;;;;5094089;28;20180;-48
2023/06/28 01:20:35;;;;;;;5.68;3.42;;;17.80;99.90;;;;;;5075658;28;20615;-49
2023/06/28 01:23:02;;;;;;;5.38;2.08;;;17.60;99.90;;;;;;5094117;28;20248;-48
2023/06/28 01:25:27;;;;;;;5.93;2.60;;;17.60;99.90;;;;;;5093943;28;20205;-49
2023/06/28 01:27:54;;;;;;;8.27;2.75;;;17.40;99.90;;;;;;5093318;28;20203;-48
2023/06/28 01:30:23;;;;;;;8.25;3.17;;;17.50;99.90;;;;;;5093489;28;20197;-48
2023/06/28 01:32:49;;;;;;;8.50;2.42;;;17.50;99.90;;;;;;5093529;28;20633;-49
2023/06/28 01:35:15;;;;;;;7.47;2.70;;;17.40;99.90;;;;;;5093496;28;20532;-48
2023/06/28 01:37:42;;;;;;;6.95;2.67;;;17.20;99.90;;;;;;5093664;28;20180;-48
2023/06/28 01:40:09;;;;;;;4.25;2.60;;;17.20;99.90;;;;;;5093608;28;20181;-48
2023/06/28 01:42:36;;;;;;;3.88;2.35;;;17.20;99.90;;;;;;5093554;28;20166;-48
2023/06/28 01:45:02;;;;;;;4.10;2.50;;;17.20;99.90;;;;;;5093658;28;20158;-48
2023/06/28 01:47:28;;;;;;;6.13;2.70;;;17.30;99.90;;;;;;5093548;28;20257;-48
2023/06/28 01:49:54;;;;;;;3.88;2.55;;;17.30;99.90;;;;;;5093210;28;20244;-48
2023/06/28 01:52:20;;;;;;;6.70;2.60;;;17.30;99.90;;;;;;5093067;28;20204;-48
2023/06/28 01:54:45;;;;;;;5.30;2.60;;;17.40;99.90;;;;;;5093060;28;20173;-48
2023/06/28 01:57:11;;;;;;;4.88;2.67;;;17.20;99.90;;;;;;5093092;28;20267;-48
2023/06/28 01:59:37;;;;;;;6.25;2.45;;;;;;;;;;5092482;28;20176;-48
2023/06/28 02:02:03;;;;;;;8.10;2.67;;;17.30;99.90;;;;;;5092807;28;20173;-48
2023/06/28 02:04:29;;;;;;;4.85;2.58;;;17.30;99.90;;;;;;5092979;28;20680;-48
2023/06/28 02:06:56;;;;;;;7.47;2.20;;;17.40;99.90;;;;;;5092793;28;20256;-48
2023/06/28 02:09:22;;;;;;;9.32;2.67;;;17.50;99.90;;;;;;5092687;28;20213;-48
2023/06/28 02:11:48;;;;;;;6.10;3.10;;;;;;;;;;5092686;28;20201;-48
2023/06/28 02:14:14;;;;;;;6.43;3.10;;;17.20;99.90;;;;;;5092678;28;20168;-48
2023/06/28 02:16:41;;;;;;;3.25;2.83;;;;;;;;;;5092874;28;20176;-48
2023/06/28 02:19:12;;;;;;;5.93;2.85;;;17.30;99.90;;;;;;5092840;28;20169;-48
2023/06/28 02:21:40;;;;;;;6.85;2.90;;;17.30;99.90;;;;;;5092844;28;20251;-48
2023/06/28 02:24:07;;;;;;;5.75;3.03;;;17.00;99.90;;;;;;5092750;28;20532;-48
2023/06/28 02:26:34;;;;;;;6.40;2.95;;;;;;;;;;5092482;28;20165;-48
2023/06/28 02:29:00;;;;;;;5.32;3.15;;;17.50;99.90;;;;;;5092908;28;20177;-48
2023/06/28 02:31:25;;;;;;;6.93;2.63;;;17.30;99.90;;;;;;5092366;28;20538;-48
2023/06/28 02:33:51;;;;;;;8.05;3.10;;;17.50;99.90;;;;;;5092351;28;20509;-48
2023/06/28 02:36:17;;;;;;;8.88;2.70;;;17.50;99.90;;;;;;5092366;28;20167;-48
2023/06/28 02:38:42;;;;;;;5.65;2.78;;;16.90;99.90;;;;;;5092303;28;20180;-48
2023/06/28 02:41:08;;;;;;;8.48;2.50;;;17.40;99.90;;;;;;5092317;28;20521;-48
2023/06/28 02:43:33;;;;;;;8.23;3.30;;;17.30;99.90;;;;;;5092174;28;20165;-48
2023/06/28 02:45:59;;;;;;;10.10;3.30;;;17.30;99.90;;;;;;5092536;28;20203;-48
2023/06/28 02:48:24;;;;;;;9.63;2.78;;;17.50;99.90;;;;;;5092143;28;20286;-48
2023/06/28 02:50:50;;;;;;;7.40;3.00;;;17.60;99.90;;;;;;5091960;28;20706;-48
2023/06/28 02:53:15;;;;;;;7.65;2.80;;;18.10;99.90;;;;;;5092034;28;20172;-48
2023/06/28 02:55:41;;;;;;;9.70;3.00;;;18.20;99.90;;;;;;5092339;28;20165;-48
2023/06/28 02:58:06;;;;;;;5.15;3.20;;;18.40;99.90;;;;;;5091979;28;20170;-48
2023/06/28 03:00:37;;;;;;;6.15;2.47;;;17.70;99.90;;;;;;5092331;28;20608;-48
2023/06/28 03:03:03;;;;;;;8.93;3.15;;;17.60;99.90;;;;;;5092213;28;20258;-48
2023/06/28 03:05:29;;;;;;;4.35;2.55;;;17.70;99.90;;;;;;5092591;28;20180;-48
2023/06/28 03:07:54;;;;;;;3.42;2.60;;;17.90;99.90;;;;;;5091983;28;20166;-48
2023/06/28 03:10:20;;;;;;;9.40;3.33;;;17.70;99.90;;;;;;5091592;28;20212;-48
2023/06/28 03:12:45;;;;;;;7.05;2.80;;;17.50;99.90;;;;;;5091791;28;20170;-48
2023/06/28 03:15:11;;;;;;;6.78;3.28;;;18.40;99.90;;;;;;5091805;28;20165;-48
2023/06/28 03:17:37;;;;;;;5.35;2.88;;;17.80;99.90;;;;;;5091316;28;20645;-48
2023/06/28 03:20:03;;;;;;;8.15;2.55;;;;;;;;;;5092089;28;20167;-48
2023/06/28 03:22:28;;;;;;;8.43;2.85;;;17.80;99.90;;;;;;5092077;28;20640;-48
2023/06/28 03:24:54;;;;;;;4.97;2.65;;;17.60;99.90;;;;;;5091677;28;20169;-48
2023/06/28 03:27:20;;;;;;;4.60;2.72;;;17.80;99.90;;;;;;5091600;28;20172;-48
2023/06/28 03:29:45;;;;;;;10.60;3.70;;;17.90;99.90;;;;;;5091599;28;20208;-48
2023/06/28 03:32:11;;;;;;;4.63;2.90;;;17.70;99.90;;;;;;5091619;28;20196;-48
2023/06/28 03:34:37;;;;;;;7.50;3.53;;;;;;;;;;5091475;28;20169;-48
2023/06/28 03:37:03;;;;;;;8.25;3.05;;;;;;;;;;5091559;28;20169;-48
2023/06/28 03:39:28;;;;;;;8.68;3.25;;;18.30;99.90;;;;;;5091929;28;20223;-48
2023/06/28 03:41:54;;;;;;;12.55;3.80;;;17.70;99.90;;;;;;5091455;28;20585;-48
2023/06/28 03:44:19;;;;;;;15.73;3.13;;;17.60;99.90;;;;;;5091493;28;20240;-48
2023/06/28 03:46:45;;;;;;;4.97;2.90;;;17.60;99.90;;;;;;5091454;28;20169;-48
2023/06/28 03:49:10;;;;;;;13.73;4.00;;;17.40;99.90;;;;;;5091551;28;20176;-48
2023/06/28 03:51:36;;;;;;;6.78;2.55;;;17.80;99.90;;;;;;5091396;28;20205;-48
2023/06/28 03:54:02;;;;;;;5.78;2.90;;;;;;;;;;5091988;28;20166;-48
2023/06/28 03:56:28;;;;;;;5.30;2.63;;;17.70;99.90;;;;;;5091850;28;20613;-48
2023/06/28 03:58:53;;;;;;;6.65;3.53;;;17.70;99.90;;;;;;5091551;28;20169;-48
2023/06/28 04:01:19;;;;;;;8.45;3.00;;;17.70;99.90;;;;;;5091466;28;20226;-48
2023/06/28 04:03:45;;;;;;;10.32;3.03;;;17.70;99.90;;;;;;5091339;28;20165;-48
2023/06/28 04:06:11;;;;;;;12.85;3.60;;;;;;;;;;5091202;28;20548;-48
2023/06/28 04:08:37;;;;;;;9.38;3.15;;;;;;;;;;5091509;28;20197;-48
2023/06/28 04:11:02;;;;;;;10.95;3.70;;;;;;;;;;5090911;28;20223;-48
2023/06/28 04:13:28;;;;;;;6.38;3.25;;;18.00;99.90;;;;;;5091611;28;20170;-48
2023/06/28 04:15:54;;;;;;;9.65;3.08;;;17.70;99.90;;;;;;5091413;28;20169;-47
2023/06/28 04:18:20;;;;;;;6.90;2.97;;;;;;;;;;5091077;28;20166;-48
2023/06/28 04:20:46;;;;;;;5.43;3.15;;;;;;;;;;5091229;28;20211;-48
2023/06/28 04:23:12;;;;;;;8.27;3.13;;;;;;;;;;5091288;28;20169;-48
2023/06/28 04:25:37;;;;;;;6.35;3.17;;;17.70;99.90;;;;;;5091156;28;20202;-48
2023/06/28 04:28:04;;;;;;;8.52;3.10;;;18.00;99.90;;;;;;5091074;28;20169;-48
2023/06/28 04:30:31;;;;;;;10.13;3.50;;;17.10;99.90;;;;;;5093145;28;20196;-48
2023/06/28 04:32:57;;;;;;;10.27;3.45;;;18.00;99.90;;;;;;5095015;28;20535;-48
2023/06/28 04:35:22;;;;;;;9.75;3.40;;;17.50;99.90;;;;;;5094635;28;20166;-48
2023/06/28 04:37:50;;;;;;;10.63;3.38;;;18.10;99.90;;;;;;5094817;28;20173;-48
2023/06/28 04:40:16;;;;;;;8.25;2.40;;;;;;;;;;5094763;28;20177;-47
2023/06/28 04:42:42;;;;;;;11.60;3.25;;;;;;;;;;5094504;28;20528;-47
2023/06/28 04:45:09;;;;;;;7.57;3.20;;;;;;;;;;5094666;28;20161;-48
2023/06/28 04:47:35;;;;;;;12.63;3.40;;;17.70;99.90;;;;;;5094667;28;20235;-47
2023/06/28 04:50:02;;;;;;;8.38;2.63;;;;;;;;;;5076615;28;20169;-47
2023/06/28 04:52:28;;;;;;;11.15;3.08;;;;;;;;;;5094879;28;20209;-47
2023/06/28 04:54:54;;;;;;;11.10;3.47;;;;;;;;;;5094150;28;20165;-47
2023/06/28 04:57:20;;;;;;;12.18;3.22;;;;;;;;;;5094199;28;20252;-47
2023/06/28 04:59:46;;;;;;;5.05;2.75;;;;;;;;;;5094165;28;20165;-48
2023/06/28 05:02:14;;;;;;;7.93;2.80;;;;;;;;;;5094139;28;20165;-48
2023/06/28 05:04:40;;;;;;;7.05;2.47;;;;;;;;;;5094295;28;20264;-47
2023/06/28 05:07:07;;;;;;;8.57;3.60;;;17.90;99.90;;;;;;5094131;28;20645;-47
2023/06/28 05:09:34;;;;;;;7.53;3.40;;;17.90;99.90;;;;;;5075527;28;20589;-48
2023/06/28 05:12:01;;;;;;;9.98;3.13;;;;;;;;;;5094208;28;20250;-48
2023/06/28 05:14:28;;;;;;;9.80;3.60;;;18.00;99.90;;;;;;5093812;28;20625;-47
2023/06/28 05:16:54;;;;;;;8.90;2.83;;;;;;;;;;5093701;28;20170;-47
2023/06/28 05:19:20;;;;;;;6.20;2.65;;;;;;;;;;5093882;28;20170;-47
2023/06/28 05:21:46;;;;;;;7.97;3.00;;;;;;;;;;5093983;28;20172;-47
2023/06/28 05:24:11;;;;;;;5.30;2.58;;;17.70;99.90;;;;;;5093681;28;20244;-47
2023/06/28 05:26:37;;;;;;;4.78;2.03;;;17.90;99.90;;;;;;5093826;28;20215;-47
2023/06/28 05:29:03;;;;;;;6.55;2.70;;;18.00;99.90;;;;;;5093585;28;20172;-48
2023/06/28 05:31:28;;;;;;;7.38;2.15;;;17.60;99.90;;;;;;5094078;28;20209;-48
2023/06/28 05:33:54;;;;;;;6.93;2.78;;;17.90;99.90;;;;;;5075240;28;20621;-47
2023/06/28 05:36:21;;;;;;;9.70;2.90;;;18.00;99.90;;;;;;5093493;28;20180;-48
2023/06/28 05:38:47;;;;;;;8.55;2.35;;;18.00;99.90;;;;;;5093498;28;20192;-47
2023/06/28 05:41:14;;;;;;;3.70;2.03;;;17.80;99.90;;;;;;5093032;28;20194;-48
2023/06/28 05:43:42;;;;;;;6.72;2.28;;;18.00;99.90;;;;;;5093352;28;20177;-47
2023/06/28 05:46:08;;;;;;;5.30;2.53;;;18.40;99.90;;;;;;5093339;28;20157;-48
2023/06/28 05:48:34;;;;;;;6.38;2.55;;;;;;;;;;5093306;28;20184;-47
2023/06/28 05:51:00;;;;;;;8.07;2.50;;;;;;;;;;5092807;28;20237;-47
2023/06/28 05:53:26;;;;;;;5.53;2.78;;;;;;;;;;5092873;28;20625;-47
2023/06/28 05:55:52;;;;;;;8.68;3.00;;;;;;;;;;5074710;28;20547;-48
2023/06/28 05:58:20;;;;;;;5.75;2.95;;;18.10;99.90;;;;;;5092977;28;20249;-48
2023/06/28 06:00:46;;;;;;;5.40;2.65;;;18.10;99.90;;;;;;5092964;28;20215;-47
2023/06/28 06:03:12;;;;;;;5.97;2.50;;;18.00;99.90;;;;;;5092946;28;20173;-47
2023/06/28 06:05:38;;;;;;;9.80;2.88;;;;;;;;;;5092891;28;20261;-47
2023/06/28 06:08:05;;;;;;;9.32;2.92;;;;;;;;;;5092898;28;20256;-47
2023/06/28 06:10:31;;;;;;;8.50;3.05;;;17.70;99.90;;;;;;5092947;28;20296;-47
2023/06/28 06:12:57;;;;;;;9.75;2.80;;;;;;;;;;5093142;28;20176;-48
2023/06/28 06:15:23;;;;;;;10.32;3.58;;;;;;;;;;5092647;28;20236;-48
2023/06/28 06:17:50;;;;;;;7.25;3.45;;;;;;;;;;5092768;28;20172;-48
2023/06/28 06:20:16;;;;;;;12.10;3.92;;;18.10;99.90;;;;;;5092417;28;20169;-48
2023/06/28 06:22:46;;;;;;;11.52;3.30;;;18.10;99.90;;;;;;5092618;28;20161;-48
2023/06/28 06:25:11;;;;;;;10.32;4.07;;;17.90;99.90;;;;;;5092493;28;20165;-48
2023/06/28 06:27:37;;;;;;;6.90;3.25;;;18.50;99.90;;;;;;5092589;28;20182;-47
2023/06/28 06:30:03;;;;;;;7.47;3.67;;;;;;;;;;5092672;28;20166;-47
2023/06/28 06:32:29;;;;;;;9.73;3.72;;;18.00;99.90;;;;;;5092730;28;20232;-48
2023/06/28 06:34:58;;;;;;;10.68;4.18;;;18.00;99.90;;;;;;5092309;28;20216;-47
2023/06/28 06:37:26;;;;;;;15.65;4.40;;;18.00;99.90;;;;;;5092301;28;20169;-47
2023/06/28 06:39:53;;;;;;;11.80;4.28;;;17.90;99.90;;;;;;5092226;28;20169;-48
2023/06/28 06:42:19;;;;;;;9.73;3.88;;;17.70;99.90;;;;;;5092645;28;20165;-47
2023/06/28 06:44:44;;;;;;;8.52;4.00;;;18.00;99.90;;;;;;5092205;28;20174;-48
2023/06/28 06:47:10;;;;;;;13.65;3.35;;;18.20;99.90;;;;;;5092155;28;20165;-48
2023/06/28 06:49:35;;;;;;;11.43;3.20;;;18.20;99.90;;;;;;5091682;28;20617;-47
2023/06/28 06:52:02;;;;;;;6.53;3.10;;;;;;;;;;5091473;28;20197;-48
2023/06/28 06:54:29;;;;;;;8.43;3.63;;;18.30;99.90;;;;;;5092458;28;20181;-48
2023/06/28 06:56:56;;;;;;;10.75;4.13;;;;;;;;;;5092123;28;20180;-49
2023/06/28 06:59:23;;;;;;;9.45;3.30;;;18.70;99.90;;;;;;5092111;28;20239;-48
2023/06/28 07:01:50;;;;;;;11.88;3.53;;;18.10;99.90;;;;;;5091900;28;20172;-48
2023/06/28 07:04:15;;;;;;;6.97;2.60;;;18.30;99.90;;;;;;5091637;28;20248;-47
2023/06/28 07:06:42;;;;;;;15.65;3.95;;;18.20;99.90;;;;;;5091804;28;20314;-47
2023/06/28 07:09:07;;;;;;;10.45;3.17;;;18.20;99.90;;;;;;5091859;28;20213;-48
2023/06/28 07:11:34;;;;;;;10.73;3.25;;;18.50;99.90;;;;;;5091158;28;20803;-48
2023/06/28 07:14:00;;;;;;;8.13;3.35;;;;;;;;;;5092145;28;20260;-47
2023/06/28 07:16:25;;;;;;;7.90;3.40;;;18.30;99.90;;;;;;5091651;28;20166;-49
2023/06/28 07:18:51;;;;;;;12.68;3.63;;;18.20;99.90;;;;;;5091661;28;20196;-48
2023/06/28 07:21:16;;;;;;;9.45;2.88;;;18.50;99.90;;;;;;5091582;28;20201;-48
2023/06/28 07:23:42;;;;;;;11.38;3.35;;;;;;;;;;5091652;28;20170;-48
2023/06/28 07:26:08;;;;;;;8.00;3.05;;;18.90;99.90;;;;;;5091812;28;20173;-48
2023/06/28 07:28:34;;;;;;;11.40;3.75;;;;;;;;;;5091593;28;20659;-48
2023/06/28 07:30:59;;;;;;;7.00;3.05;;;18.90;99.90;;;;;;5091990;28;20740;-48
2023/06/28 07:33:26;;;;;;;5.43;3.22;;;;;;;;;;5091511;28;20693;-48
2023/06/28 07:35:52;;;;;;;8.50;3.65;;;19.10;99.90;;;;;;5091157;28;20169;-48
2023/06/28 07:38:19;;;;;;;6.97;3.38;;;18.70;99.90;;;;;;5091232;28;20214;-47
2023/06/28 07:40:48;;;;;;;6.10;3.53;;;;;;;;;;5091279;28;20185;-48
2023/06/28 07:43:14;;;;;;;11.82;4.10;;;;;;;;;;5091141;28;20176;-48
2023/06/28 07:45:40;;;;;;;10.13;3.20;;;19.10;99.90;;;;;;5091343;28;20681;-48
2023/06/28 07:48:06;;;;;;;8.68;3.85;;;19.30;99.90;;;;;;5091362;28;20257;-48
2023/06/28 07:50:32;;;;;;;9.48;4.15;;;;;;;;;;5091203;28;20237;-48
2023/06/28 07:52:58;;;;;;;4.65;3.50;;;19.20;99.90;;;;;;5091931;28;20234;-48
2023/06/28 07:55:24;;;;;;;8.52;4.13;;;19.30;99.90;;;;;;5091194;28;20692;-48
2023/06/28 07:57:49;;;;;;;11.57;3.70;;;;;;;;;;5091183;28;20315;-48
2023/06/28 08:00:16;;;;;;;8.02;3.28;;;18.80;99.90;;;;;;5091191;28;20188;-48
2023/06/28 08:02:42;;;;;;;11.73;4.43;;;18.90;99.90;;;;;;5091433;28;20165;-48
2023/06/28 08:05:08;;;;;;;13.85;3.75;;;19.40;99.90;;;;;;5094065;28;20165;-48
2023/06/28 08:07:34;;;;;;;12.55;4.18;;;18.80;99.90;;;;;;5095143;28;20165;-47
2023/06/28 08:10:00;;;;;;;13.07;3.47;;;;;;;;;;5095493;28;20251;-48
2023/06/28 08:12:26;;;;;;;12.52;3.50;;;;;;;;;;5095413;28;20213;-48
2023/06/28 08:14:52;;;;;;;9.10;3.95;;;19.70;99.90;;;;;;5095053;28;20165;-48
2023/06/28 08:17:17;;;;;;;11.07;4.45;;;19.50;99.90;;;;;;5094950;28;20509;-48
2023/06/28 08:19:43;;;;;;;12.63;4.18;;;19.50;99.90;;;;;;5076775;28;20567;-48
2023/06/28 08:22:08;;;;;;;9.80;3.67;;;19.50;99.90;;;;;;5094999;28;20185;-48
2023/06/28 08:24:34;;;;;;;13.85;3.45;;;19.30;99.90;;;;;;5094775;28;20183;-48
2023/06/28 08:27:00;;;;;;;7.90;2.92;;;18.90;99.90;;;;;;5095524;28;20201;-48
2023/06/28 08:29:26;;;;;;;13.15;2.97;;;18.90;99.90;;;;;;5094817;28;20180;-48
2023/06/28 08:31:52;;;;;;;7.70;2.83;;;19.30;99.90;;;;;;5094497;28;20240;-48
2023/06/28 08:34:18;;;;;;;5.97;2.67;;;;;;;;;;5094929;28;20189;-48
2023/06/28 08:36:44;;;;;;;8.32;2.83;;;19.10;99.90;;;;;;5094589;28;20578;-48
2023/06/28 08:39:09;;;;;;;6.50;3.00;;;18.90;99.90;;;;;;5094637;28;20172;-48
2023/06/28 08:41:36;;;;;;;10.35;2.60;;;19.20;99.90;;;;;;5094564;28;20173;-48
2023/06/28 08:44:04;;;;;;;11.20;3.58;;;19.50;99.90;;;;;;5094503;28;20169;-48
2023/06/28 08:46:30;;;;;;;14.15;3.85;;;;;;;;;;5094741;28;20181;-48
2023/06/28 08:48:57;;;;;;;9.48;3.00;;;19.70;99.90;;;;;;5094991;28;20173;-48
2023/06/28 08:51:24;;;;;;;8.82;2.83;;;18.90;99.90;;;;;;5094513;28;20617;-48
2023/06/28 08:53:50;;;;;;;6.22;3.10;;;19.10;99.90;;;;;;5094245;28;20194;-48
2023/06/28 08:56:16;;;;;;;6.35;2.53;;;19.80;99.90;;;;;;5094318;28;20264;-48
2023/06/28 08:58:42;;;;;;;12.73;4.18;;;19.90;99.90;;;;;;5094261;28;20751;-48
2023/06/28 09:01:12;;;;;;;11.52;3.05;;;19.70;99.90;;;;;;5094438;28;20514;-49
2023/06/28 09:03:42;;;;;;;9.32;3.08;;;19.40;99.90;;;;;;5094155;28;20173;-48
2023/06/28 09:06:08;;;;;;;6.05;2.78;;;19.40;99.90;;;;;;5094122;28;20242;-48
2023/06/28 09:08:35;;;;;;;12.57;3.00;;;19.90;99.90;;;;;;5094018;28;20226;-48
2023/06/28 09:11:01;;;;;;;11.25;3.10;;;;;;;;;;5094148;28;20734;-48
2023/06/28 09:13:28;;;;;;;10.18;3.50;;;19.80;99.90;;;;;;5094326;28;20166;-48
2023/06/28 09:15:54;;;;;;;10.35;2.72;;;19.90;99.90;;;;;;5093129;28;20169;-48
2023/06/28 09:18:20;;;;;;;6.18;2.67;;;;;;;;;;5093848;28;20215;-48
2023/06/28 09:20:51;;;;;;;7.80;2.60;;;19.80;99.90;;;;;;5093732;28;20168;-48
2023/06/28 09:23:27;;;;;;;15.07;3.40;;;19.90;99.90;;;;;;5075662;28;20648;-48
2023/06/28 09:25:53;;;;;;;6.25;2.78;;;20.50;99.90;;;;;;5093706;28;20231;-48
2023/06/28 09:28:20;;;;;;;7.60;2.45;;;;;;;;;;5093666;28;20175;-48
2023/06/28 09:30:53;;;;;;;5.82;2.88;;;19.50;99.90;;;;;;5093538;28;20280;-48
2023/06/28 09:33:19;;;;;;;5.38;2.70;;;19.70;99.90;;;;;;5093567;28;20171;-48
2023/06/28 09:35:44;;;;;;;6.40;2.20;;;20.10;99.90;;;;;;5093744;28;20169;-48
2023/06/28 09:38:10;;;;;;;4.95;2.33;;;20.10;99.90;;;;;;5093390;28;20536;-48
2023/06/28 09:40:36;;;;;;;8.68;2.90;;;20.20;99.90;;;;;;5093587;28;20596;-48
2023/06/28 09:43:02;;;;;;;6.25;2.42;;;19.70;99.90;;;;;;5093284;28;20248;-48
2023/06/28 09:45:32;;;;;;;5.35;2.60;;;20.50;99.90;;;;;;5093587;28;20158;-48
2023/06/28 09:48:03;;;;;;;5.13;2.33;;;20.30;99.90;;;;;;5093920;28;20215;-48
2023/06/28 09:50:38;;;;;;;7.28;2.55;;;20.60;99.90;;;;;;5093770;28;20172;-48
2023/06/28 09:53:15;;;;;;;5.18;2.15;;;20.70;99.90;;;;;;5093209;28;20192;-48
2023/06/28 09:55:44;;;;;;;5.47;2.22;;;20.90;99.90;;;;;;5093355;28;20165;-48
2023/06/28 09:58:15;;;;;;;7.57;2.50;;;20.60;99.90;;;;;;5093369;28;20552;-48
2023/06/28 10:00:42;;;;;;;9.60;2.83;;;20.90;99.90;;;;;;5093072;28;20279;-48
2023/06/28 10:03:10;;;;;;;7.40;2.80;;;20.70;99.90;;;;;;5092947;28;20170;-48
2023/06/28 10:05:38;;;;;;;7.32;2.45;;;20.80;99.90;;;;;;5092876;28;20222;-48
2023/06/28 10:08:07;;;;;;;7.32;2.50;;;20.40;99.90;;;;;;5092903;28;20177;-48
2023/06/28 10:10:34;;;;;;;4.25;2.05;;;20.60;99.90;;;;;;5092624;28;20290;-48
2023/06/28 10:13:11;;;;;;;7.07;2.20;;;20.70;99.90;;;;;;5093079;28;20716;-48
2023/06/28 10:15:55;;;;;;;4.40;2.30;;;21.10;99.90;;;;;;5092762;28;20226;-48
2023/06/28 10:18:22;;;;;;;6.82;2.25;;;21.50;99.90;;;;;;5092712;28;20157;-48
2023/06/28 10:20:48;;;;;;;7.00;2.35;;;21.50;99.90;;;;;;5092671;28;20162;-48
2023/06/28 10:23:15;;;;;;;5.03;2.55;;;21.70;99.90;;;;;;5092671;28;20244;-48
2023/06/28 10:25:43;;;;;;;5.90;2.63;;;21.50;99.90;;;;;;5092459;28;20165;-48
2023/06/28 10:28:09;;;;;;;6.93;2.65;;;21.80;99.90;;;;;;5091540;28;20166;-48
2023/06/28 10:30:35;;;;;;;5.68;2.92;;;;;;;;;;5092396;28;20196;-48
2023/06/28 10:33:04;;;;;;;8.57;2.50;;;21.70;99.90;;;;;;5092507;28;20173;-48
2023/06/28 10:35:31;;;;;;;6.28;2.72;;;;;;;;;;5093035;28;20169;-48
2023/06/28 10:37:57;;;;;;;8.82;2.90;;;;;;;;;;5092761;28;20173;-48
2023/06/28 10:40:25;;;;;;;10.45;3.33;;;21.90;99.90;;;;;;5092508;28;20222;-48
2023/06/28 10:42:50;;;;;;;7.57;3.17;;;21.90;99.90;;;;;;5092512;28;20173;-49
2023/06/28 10:45:16;;;;;;;6.10;2.60;;;22.00;99.90;;;;;;5092433;28;20166;-48
2023/06/28 10:47:54;;;;;;;7.28;2.63;;;22.20;99.90;;;;;;5092084;28;20173;-48
2023/06/28 10:50:22;;;;;;;7.15;2.80;;;22.20;99.90;;;;;;5092226;28;20710;-48
2023/06/28 10:52:49;;;;;;;6.05;2.70;;;22.20;99.90;;;;;;5092244;28;20209;-48
2023/06/28 10:55:19;;;;;;;7.28;3.28;;;22.30;99.90;;;;;;5091967;28;20637;-48
2023/06/28 10:57:45;;;;;;;8.07;3.15;;;;;;;;;;5092105;28;20188;-48
2023/06/28 11:00:45;;;;;;;6.57;2.97;;;22.40;99.90;;;;;;5091984;28;20554;-48
2023/06/28 11:03:11;;;;;;;7.65;3.20;;;22.80;99.90;;;;;;5091823;28;20641;-48
2023/06/28 11:05:53;;;;;;;9.05;3.33;;;22.40;99.90;;;;;;5091915;28;20172;-49
2023/06/28 11:08:20;;;;;;;9.05;3.65;;;22.10;99.90;;;;;;5092026;28;20180;-48
2023/06/28 11:10:48;;;;;;;10.05;3.88;;;;;;;;;;5091507;28;20311;-49
2023/06/28 11:13:42;;;;;;;10.02;4.07;;;22.20;99.90;;;;;;5091650;28;20650;-49
2023/06/28 11:16:18;;;;;;;10.75;4.43;;;22.20;99.90;;;;;;5079516;28;20181;-48
2023/06/28 11:18:45;;;;;;;15.48;4.18;;;;;;;;;;5091739;28;20169;-48
2023/06/28 11:21:15;;;;;;;14.43;4.63;;;;;;;;;;5091699;28;20628;-48
2023/06/28 11:23:42;;;;;;;11.68;4.40;;;22.90;99.90;;;;;;5091883;28;20195;-48
2023/06/28 11:26:15;;;;;;;9.77;3.97;;;22.30;99.90;;;;;;5091806;28;20175;-48
2023/06/28 11:28:51;;;;;;;12.50;3.95;;;;;;;;;;5091782;28;20168;-48
2023/06/28 11:31:43;;;;;;;6.10;3.85;;;21.60;99.90;;;;;;5091354;28;20207;-48
2023/06/28 11:34:13;;;;;;;8.23;3.63;;;;;;;;;;5090456;28;20196;-48
2023/06/28 11:36:41;;;;;;;6.30;2.67;;;22.40;99.90;;;;;;5091594;28;20169;-48
2023/06/28 11:39:06;;;;;;;6.88;3.30;;;22.00;99.90;;;;;;5092930;28;20210;-48
2023/06/28 11:41:35;;;;;;;7.75;3.38;;;22.40;99.90;;;;;;5095944;28;20165;-48
2023/06/28 11:44:04;;;;;;;6.47;3.20;;;22.60;99.90;;;;;;5095623;28;20172;-48
2023/06/28 11:46:32;;;;;;;11.15;3.17;;;22.20;99.90;;;;;;5096163;28;20169;-49
2023/06/28 11:49:02;;;;;;;8.45;3.80;;;;;;;;;;5095955;28;20162;-49
2023/06/28 11:51:28;;;;;;;9.25;3.25;;;22.70;99.90;;;;;;5095801;28;20223;-48
2023/06/28 11:53:57;;;;;;;7.13;2.90;;;22.80;99.90;;;;;;5095451;28;20182;-48
2023/06/28 11:56:38;;;;;;;8.85;3.40;;;22.30;99.90;;;;;;5095452;28;20218;-48
2023/06/28 11:59:15;;;;;;;5.70;3.10;;;22.20;99.90;;;;;;5095258;28;20282;-48
2023/06/28 12:01:41;;;;;;;8.13;3.35;;;22.50;99.90;;;;;;5095282;28;20569;-48
2023/06/28 12:04:13;;;;;;;15.40;3.58;;;22.60;99.90;;;;;;5095205;28;20177;-48
2023/06/28 12:06:41;;;;;;;9.48;3.35;;;;;;;;;;5095198;28;20183;-48
2023/06/28 12:09:29;;;;;;;8.45;3.80;;;23.00;99.90;;;;;;5094752;28;20235;-48
2023/06/28 12:11:57;;;;;;;9.75;3.83;;;;;;;;;;5094594;28;20200;-48
2023/06/28 12:14:23;;;;;;;12.23;3.67;;;23.00;99.90;;;;;;5095121;28;20172;-48
2023/06/28 12:16:50;;;;;;;7.03;3.47;;;23.00;99.90;;;;;;5094792;28;20168;-48
2023/06/28 12:19:16;;;;;;;9.63;4.07;;;23.60;99.90;;;;;;5094839;28;20244;-48
2023/06/28 12:21:43;;;;;;;10.15;4.00;;;23.40;99.90;;;;;;5094643;28;20169;-48
2023/06/28 12:24:12;;;;;;;8.10;3.38;;;;;;;;;;5094899;28;20246;-48
2023/06/28 12:26:38;;;;;;;5.70;3.30;;;23.60;99.90;;;;;;5094597;28;20527;-48
2023/06/28 12:29:08;;;;;;;7.28;3.53;;;23.80;99.90;;;;;;5095002;28;20221;-48
2023/06/28 12:31:52;;;;;;;10.77;3.38;;;23.50;99.90;;;;;;5094632;28;20204;-48
2023/06/28 12:34:25;;;;;;;9.05;3.65;;;;;;;;;;5094974;28;20176;-48
2023/06/28 12:37:11;;;;;;;8.35;3.58;;;23.40;99.90;;;;;;5077015;28;20169;-49
2023/06/28 12:39:41;;;;;;;6.40;3.95;;;23.30;99.90;;;;;;5094290;28;20181;-48
2023/06/28 12:42:18;;;;;;;11.93;3.58;;;23.70;99.90;;;;;;5094396;28;20172;-48
2023/06/28 12:45:00;;;;;;;10.60;3.40;;;;;;;;;;5094674;28;20195;-48
2023/06/28 12:47:30;;;;;;;7.10;2.85;;;;;;;;;;5095022;28;20179;-48
2023/06/28 12:49:57;;;;;;;8.30;3.63;;;23.80;99.90;;;;;;5094217;28;20165;-48
2023/06/28 12:52:25;;;;;;;10.73;3.47;;;;;;;;;;5093791;28;20532;-47
2023/06/28 12:54:51;;;;;;;11.02;3.20;;;22.90;99.90;;;;;;5094237;28;20497;-48
2023/06/28 12:57:22;;;;;;;8.05;3.30;;;23.90;99.90;;;;;;5094253;28;20616;-48
2023/06/28 12:59:49;;;;;;;10.82;3.40;;;23.60;99.90;;;;;;5092644;28;20161;-48
2023/06/28 13:02:14;;;;;;;6.50;2.63;;;23.90;99.90;;;;;;5094032;28;20249;-48
2023/06/28 13:04:40;;;;;;;7.35;3.22;;;23.10;99.90;;;;;;5093915;28;20188;-48
2023/06/28 13:07:10;;;;;;;7.57;3.03;;;23.40;99.90;;;;;;5093860;28;20165;-48
2023/06/28 13:09:36;;;;;;;8.38;2.67;;;;;;;;;;5075078;28;20221;-49